Brookville, Kansas
Current Conditions -  °F | °C
As of 1:53 AM on Thursday 27 Nov 2014 (Local Time) from KSLN Reporting Station
Broken Clouds Broken Clouds  
Wind Chill: 22°   Ceiling: 10000
Heat Index: 27°   Visibility: 10mi
Dew Point: 17°   Wind: 5mph
Humidity: 66%   Direction: 60°ENE
Pressure: 30.48"   Gusts: NA
Location:  38.78°N, 97.87°W
Report Text: KSLN 270753Z 06004KT 10SM BKN100 M03/M08 A3048 RMK AO2 PRESRR SLP332 T10281083
Loading
Personal Weather Stations






























Interactive Weather Map New forecast layout! Learn more

10-Day Weather Forecast

Advertisements
Track Severe Weather on mobile